Whitharral, Texas
Current Conditions -  °F | °C
As of 3:53 PM on Sunday 25 Jan 2015 (Local Time) from KLBB Reporting Station
Few Clouds Few Clouds  
Wind Chill: 59°   Ceiling: Unl
Heat Index: 59°   Visibility: 10mi
Dew Point: 29°   Wind: 13mph
Humidity: 32%   Direction: 350°N
Pressure: 30.2"   Gusts: 21mph
Location:  33.74°N, 102.33°W
Report Text: KLBB 252153Z 35011G18KT 10SM FEW250 15/M02 A3020 RMK AO2 SLP213 T01501017
Loading
Personal Weather Stations






























Interactive Weather Map New forecast layout! Learn more

10-Day Weather Forecast

Advertisements
Track Severe Weather on mobile